sensor_id;sensor_type;location;lat;lon;timestamp;P1;durP1;ratioP1;P2;durP2;ratioP2
22754;SDS011;11544;42.020;23.094;2023-06-10T00:02:06;4.55;;;4.03;;
22754;SDS011;11544;42.020;23.094;2023-06-10T00:04:34;6.85;;;4.20;;
22754;SDS011;11544;42.020;23.094;2023-06-10T00:07:03;4.75;;;4.00;;
22754;SDS011;11544;42.020;23.094;2023-06-10T00:09:35;4.90;;;4.40;;
22754;SDS011;11544;42.020;23.094;2023-06-10T00:12:04;6.40;;;4.40;;
22754;SDS011;11544;42.020;23.094;2023-06-10T00:14:31;9.57;;;4.63;;
22754;SDS011;11544;42.020;23.094;2023-06-10T00:16:58;4.80;;;4.30;;
22754;SDS011;11544;42.020;23.094;2023-06-10T00:19:25;7.22;;;4.22;;
22754;SDS011;11544;42.020;23.094;2023-06-10T00:21:56;5.22;;;4.30;;
22754;SDS011;11544;42.020;23.094;2023-06-10T00:24:23;6.18;;;4.47;;
22754;SDS011;11544;42.020;23.094;2023-06-10T00:26:51;6.45;;;4.57;;
22754;SDS011;11544;42.020;23.094;2023-06-10T00:29:18;6.22;;;4.45;;
22754;SDS011;11544;42.020;23.094;2023-06-10T00:31:45;5.47;;;4.85;;
22754;SDS011;11544;42.020;23.094;2023-06-10T00:34:13;4.78;;;4.07;;
22754;SDS011;11544;42.020;23.094;2023-06-10T00:36:40;5.55;;;4.97;;
22754;SDS011;11544;42.020;23.094;2023-06-10T00:39:07;6.78;;;5.00;;
22754;SDS011;11544;42.020;23.094;2023-06-10T00:41:33;5.07;;;4.57;;
22754;SDS011;11544;42.020;23.094;2023-06-10T00:44:00;7.15;;;4.53;;
22754;SDS011;11544;42.020;23.094;2023-06-10T00:46:27;6.65;;;5.03;;
22754;SDS011;11544;42.020;23.094;2023-06-10T00:48:54;5.85;;;5.25;;
22754;SDS011;11544;42.020;23.094;2023-06-10T00:51:22;5.55;;;4.60;;
22754;SDS011;11544;42.020;23.094;2023-06-10T00:53:49;5.35;;;4.30;;
22754;SDS011;11544;42.020;23.094;2023-06-10T00:56:16;5.50;;;4.70;;
22754;SDS011;11544;42.020;23.094;2023-06-10T00:58:43;4.78;;;4.32;;
22754;SDS011;11544;42.020;23.094;2023-06-10T01:01:11;6.00;;;4.35;;
22754;SDS011;11544;42.020;23.094;2023-06-10T01:03:39;6.75;;;4.55;;
22754;SDS011;11544;42.020;23.094;2023-06-10T01:06:09;7.47;;;4.18;;
22754;SDS011;11544;42.020;23.094;2023-06-10T01:11:36;5.82;;;4.70;;
22754;SDS011;11544;42.020;23.094;2023-06-10T01:14:15;5.32;;;4.47;;
22754;SDS011;11544;42.020;23.094;2023-06-10T01:16:43;9.38;;;4.43;;
22754;SDS011;11544;42.020;23.094;2023-06-10T01:19:12;6.75;;;4.43;;
22754;SDS011;11544;42.020;23.094;2023-06-10T01:21:40;6.50;;;4.45;;
22754;SDS011;11544;42.020;23.094;2023-06-10T01:24:07;4.88;;;3.92;;
22754;SDS011;11544;42.020;23.094;2023-06-10T01:26:34;5.72;;;4.25;;
22754;SDS011;11544;42.020;23.094;2023-06-10T01:29:17;5.35;;;4.43;;
22754;SDS011;11544;42.020;23.094;2023-06-10T01:31:57;4.97;;;4.20;;
22754;SDS011;11544;42.020;23.094;2023-06-10T01:34:33;5.43;;;4.57;;
22754;SDS011;11544;42.020;23.094;2023-06-10T01:37:01;4.78;;;4.28;;
22754;SDS011;11544;42.020;23.094;2023-06-10T01:39:30;7.13;;;4.57;;
22754;SDS011;11544;42.020;23.094;2023-06-10T01:41:58;6.53;;;4.78;;
22754;SDS011;11544;42.020;23.094;2023-06-10T01:44:26;8.05;;;4.68;;
22754;SDS011;11544;42.020;23.094;2023-06-10T01:46:53;8.98;;;4.68;;
22754;SDS011;11544;42.020;23.094;2023-06-10T01:49:20;10.35;;;5.13;;
22754;SDS011;11544;42.020;23.094;2023-06-10T01:51:48;5.40;;;4.80;;
22754;SDS011;11544;42.020;23.094;2023-06-10T01:54:15;6.50;;;4.65;;
22754;SDS011;11544;42.020;23.094;2023-06-10T01:56:42;8.77;;;4.72;;
22754;SDS011;11544;42.020;23.094;2023-06-10T01:59:08;6.20;;;5.00;;
22754;SDS011;11544;42.020;23.094;2023-06-10T02:01:35;8.73;;;5.63;;
22754;SDS011;11544;42.020;23.094;2023-06-10T02:04:02;6.65;;;5.43;;
22754;SDS011;11544;42.020;23.094;2023-06-10T02:06:29;6.47;;;4.72;;
22754;SDS011;11544;42.020;23.094;2023-06-10T02:08:56;7.10;;;5.28;;
22754;SDS011;11544;42.020;23.094;2023-06-10T02:11:23;6.13;;;4.80;;
22754;SDS011;11544;42.020;23.094;2023-06-10T02:13:50;8.10;;;5.32;;
22754;SDS011;11544;42.020;23.094;2023-06-10T02:16:17;8.23;;;5.32;;
22754;SDS011;11544;42.020;23.094;2023-06-10T02:18:44;7.25;;;5.35;;
22754;SDS011;11544;42.020;23.094;2023-06-10T02:21:11;6.90;;;5.38;;
22754;SDS011;11544;42.020;23.094;2023-06-10T02:23:38;8.80;;;5.35;;
22754;SDS011;11544;42.020;23.094;2023-06-10T02:26:05;7.93;;;5.80;;
22754;SDS011;11544;42.020;23.094;2023-06-10T02:28:32;6.47;;;5.07;;
22754;SDS011;11544;42.020;23.094;2023-06-10T02:30:58;8.15;;;5.82;;
22754;SDS011;11544;42.020;23.094;2023-06-10T02:33:26;8.63;;;5.43;;
22754;SDS011;11544;42.020;23.094;2023-06-10T02:35:53;6.05;;;5.38;;
22754;SDS011;11544;42.020;23.094;2023-06-10T02:38:21;7.55;;;5.22;;
22754;SDS011;11544;42.020;23.094;2023-06-10T02:40:48;9.23;;;5.20;;
22754;SDS011;11544;42.020;23.094;2023-06-10T02:43:15;7.07;;;5.60;;
22754;SDS011;11544;42.020;23.094;2023-06-10T02:45:41;10.43;;;7.10;;
22754;SDS011;11544;42.020;23.094;2023-06-10T02:48:09;7.50;;;5.40;;
22754;SDS011;11544;42.020;23.094;2023-06-10T02:50:36;7.95;;;5.70;;
22754;SDS011;11544;42.020;23.094;2023-06-10T02:53:05;7.25;;;5.80;;
22754;SDS011;11544;42.020;23.094;2023-06-10T02:55:32;8.25;;;5.88;;
22754;SDS011;11544;42.020;23.094;2023-06-10T02:57:59;8.25;;;5.70;;
22754;SDS011;11544;42.020;23.094;2023-06-10T03:00:26;7.88;;;5.25;;
22754;SDS011;11544;42.020;23.094;2023-06-10T03:02:54;7.47;;;6.30;;
22754;SDS011;11544;42.020;23.094;2023-06-10T03:05:24;7.30;;;5.90;;
22754;SDS011;11544;42.020;23.094;2023-06-10T03:07:51;8.55;;;5.60;;
22754;SDS011;11544;42.020;23.094;2023-06-10T03:10:17;9.93;;;6.22;;
22754;SDS011;11544;42.020;23.094;2023-06-10T03:12:44;8.30;;;4.95;;
22754;SDS011;11544;42.020;23.094;2023-06-10T03:15:11;8.00;;;5.68;;
22754;SDS011;11544;42.020;23.094;2023-06-10T03:17:39;7.05;;;5.35;;
22754;SDS011;11544;42.020;23.094;2023-06-10T03:20:06;6.20;;;5.22;;
22754;SDS011;11544;42.020;23.094;2023-06-10T03:22:36;8.88;;;5.50;;
22754;SDS011;11544;42.020;23.094;2023-06-10T03:25:04;8.35;;;5.32;;
22754;SDS011;11544;42.020;23.094;2023-06-10T03:27:32;6.72;;;5.35;;
22754;SDS011;11544;42.020;23.094;2023-06-10T03:29:59;6.22;;;4.30;;
22754;SDS011;11544;42.020;23.094;2023-06-10T03:32:26;8.45;;;5.53;;
22754;SDS011;11544;42.020;23.094;2023-06-10T03:34:53;7.03;;;5.40;;
22754;SDS011;11544;42.020;23.094;2023-06-10T03:37:26;9.48;;;5.57;;
22754;SDS011;11544;42.020;23.094;2023-06-10T03:39:53;7.07;;;4.63;;
22754;SDS011;11544;42.020;23.094;2023-06-10T03:42:20;5.07;;;4.43;;
22754;SDS011;11544;42.020;23.094;2023-06-10T03:44:47;5.18;;;4.53;;
22754;SDS011;11544;42.020;23.094;2023-06-10T03:47:14;5.63;;;4.45;;
22754;SDS011;11544;42.020;23.094;2023-06-10T03:49:41;5.93;;;4.40;;
22754;SDS011;11544;42.020;23.094;2023-06-10T03:52:08;8.00;;;4.47;;
22754;SDS011;11544;42.020;23.094;2023-06-10T03:54:34;4.53;;;4.03;;
22754;SDS011;11544;42.020;23.094;2023-06-10T03:57:04;6.43;;;4.03;;
22754;SDS011;11544;42.020;23.094;2023-06-10T03:59:32;7.85;;;3.95;;
22754;SDS011;11544;42.020;23.094;2023-06-10T04:01:59;6.15;;;4.90;;
22754;SDS011;11544;42.020;23.094;2023-06-10T04:04:27;7.97;;;5.35;;
22754;SDS011;11544;42.020;23.094;2023-06-10T04:06:53;10.02;;;5.03;;
22754;SDS011;11544;42.020;23.094;2023-06-10T04:09:20;8.75;;;4.60;;
22754;SDS011;11544;42.020;23.094;2023-06-10T04:11:47;6.78;;;5.18;;
22754;SDS011;11544;42.020;23.094;2023-06-10T04:14:14;5.03;;;4.07;;
22754;SDS011;11544;42.020;23.094;2023-06-10T04:16:41;6.85;;;3.83;;
22754;SDS011;11544;42.020;23.094;2023-06-10T04:19:09;11.07;;;4.45;;
22754;SDS011;11544;42.020;23.094;2023-06-10T04:21:36;5.78;;;4.68;;
22754;SDS011;11544;42.020;23.094;2023-06-10T04:24:03;4.10;;;3.70;;
22754;SDS011;11544;42.020;23.094;2023-06-10T04:26:30;5.50;;;4.13;;
22754;SDS011;11544;42.020;23.094;2023-06-10T04:28:57;9.68;;;4.75;;
22754;SDS011;11544;42.020;23.094;2023-06-10T04:31:24;5.22;;;4.13;;
22754;SDS011;11544;42.020;23.094;2023-06-10T04:33:51;4.85;;;4.22;;
22754;SDS011;11544;42.020;23.094;2023-06-10T04:36:18;6.75;;;4.68;;
22754;SDS011;11544;42.020;23.094;2023-06-10T04:38:44;7.53;;;4.47;;
22754;SDS011;11544;42.020;23.094;2023-06-10T04:41:12;7.32;;;4.80;;
22754;SDS011;11544;42.020;23.094;2023-06-10T04:43:39;6.32;;;5.25;;
22754;SDS011;11544;42.020;23.094;2023-06-10T04:46:06;6.65;;;5.57;;
22754;SDS011;11544;42.020;23.094;2023-06-10T04:48:34;8.10;;;5.07;;
22754;SDS011;11544;42.020;23.094;2023-06-10T04:51:02;7.45;;;5.72;;
22754;SDS011;11544;42.020;23.094;2023-06-10T04:53:29;5.85;;;4.85;;
22754;SDS011;11544;42.020;23.094;2023-06-10T04:55:56;9.95;;;5.28;;
22754;SDS011;11544;42.020;23.094;2023-06-10T04:58:24;6.35;;;5.22;;
22754;SDS011;11544;42.020;23.094;2023-06-10T05:00:51;5.50;;;4.75;;
22754;SDS011;11544;42.020;23.094;2023-06-10T05:03:18;10.43;;;5.20;;
22754;SDS011;11544;42.020;23.094;2023-06-10T05:05:45;5.53;;;5.00;;
22754;SDS011;11544;42.020;23.094;2023-06-10T05:08:12;6.45;;;5.38;;
22754;SDS011;11544;42.020;23.094;2023-06-10T05:10:38;6.50;;;5.25;;
22754;SDS011;11544;42.020;23.094;2023-06-10T05:13:05;9.18;;;5.75;;
22754;SDS011;11544;42.020;23.094;2023-06-10T05:15:32;6.97;;;5.45;;
22754;SDS011;11544;42.020;23.094;2023-06-10T05:17:59;10.32;;;5.25;;
22754;SDS011;11544;42.020;23.094;2023-06-10T05:20:26;6.90;;;5.25;;
22754;SDS011;11544;42.020;23.094;2023-06-10T05:22:54;5.47;;;4.97;;
22754;SDS011;11544;42.020;23.094;2023-06-10T05:25:21;5.53;;;4.85;;
22754;SDS011;11544;42.020;23.094;2023-06-10T05:27:48;6.63;;;5.43;;
22754;SDS011;11544;42.020;23.094;2023-06-10T05:30:15;5.70;;;4.82;;
22754;SDS011;11544;42.020;23.094;2023-06-10T05:32:44;8.57;;;5.43;;
22754;SDS011;11544;42.020;23.094;2023-06-10T05:35:11;6.18;;;5.43;;
22754;SDS011;11544;42.020;23.094;2023-06-10T05:37:38;7.32;;;5.00;;
22754;SDS011;11544;42.020;23.094;2023-06-10T05:40:05;10.40;;;5.18;;
22754;SDS011;11544;42.020;23.094;2023-06-10T05:42:32;8.30;;;5.50;;
22754;SDS011;11544;42.020;23.094;2023-06-10T05:44:59;5.28;;;4.78;;
22754;SDS011;11544;42.020;23.094;2023-06-10T05:47:26;10.05;;;5.07;;
22754;SDS011;11544;42.020;23.094;2023-06-10T05:49:53;6.88;;;4.78;;
22754;SDS011;11544;42.020;23.094;2023-06-10T05:52:23;5.78;;;4.28;;
22754;SDS011;11544;42.020;23.094;2023-06-10T05:54:50;7.07;;;4.45;;
22754;SDS011;11544;42.020;23.094;2023-06-10T05:57:17;5.72;;;5.00;;
22754;SDS011;11544;42.020;23.094;2023-06-10T05:59:44;4.82;;;4.28;;
22754;SDS011;11544;42.020;23.094;2023-06-10T06:02:10;6.05;;;4.43;;
22754;SDS011;11544;42.020;23.094;2023-06-10T06:04:37;6.78;;;4.40;;
22754;SDS011;11544;42.020;23.094;2023-06-10T06:07:05;5.90;;;4.13;;
22754;SDS011;11544;42.020;23.094;2023-06-10T06:09:32;5.53;;;4.25;;
22754;SDS011;11544;42.020;23.094;2023-06-10T06:11:58;6.30;;;4.32;;
22754;SDS011;11544;42.020;23.094;2023-06-10T06:14:25;5.03;;;3.80;;
22754;SDS011;11544;42.020;23.094;2023-06-10T06:16:52;6.93;;;3.78;;
22754;SDS011;11544;42.020;23.094;2023-06-10T06:19:19;5.82;;;3.90;;
22754;SDS011;11544;42.020;23.094;2023-06-10T06:22:00;6.25;;;3.92;;
22754;SDS011;11544;42.020;23.094;2023-06-10T06:24:27;4.32;;;3.90;;
22754;SDS011;11544;42.020;23.094;2023-06-10T06:26:55;4.95;;;3.63;;
22754;SDS011;11544;42.020;23.094;2023-06-10T06:29:22;3.78;;;3.38;;
22754;SDS011;11544;42.020;23.094;2023-06-10T06:31:48;5.85;;;3.42;;
22754;SDS011;11544;42.020;23.094;2023-06-10T06:34:15;6.50;;;3.00;;
22754;SDS011;11544;42.020;23.094;2023-06-10T06:36:42;5.35;;;3.17;;
22754;SDS011;11544;42.020;23.094;2023-06-10T06:39:09;5.82;;;3.25;;
22754;SDS011;11544;42.020;23.094;2023-06-10T06:41:36;5.05;;;3.63;;
22754;SDS011;11544;42.020;23.094;2023-06-10T06:44:04;4.90;;;3.28;;
22754;SDS011;11544;42.020;23.094;2023-06-10T06:46:31;5.68;;;3.55;;
22754;SDS011;11544;42.020;23.094;2023-06-10T06:48:58;5.78;;;3.15;;
22754;SDS011;11544;42.020;23.094;2023-06-10T06:51:25;6.75;;;3.47;;
22754;SDS011;11544;42.020;23.094;2023-06-10T06:53:52;5.45;;;3.78;;
22754;SDS011;11544;42.020;23.094;2023-06-10T06:56:21;6.78;;;3.65;;
22754;SDS011;11544;42.020;23.094;2023-06-10T06:58:48;4.97;;;3.58;;
22754;SDS011;11544;42.020;23.094;2023-06-10T07:01:14;5.40;;;3.53;;
22754;SDS011;11544;42.020;23.094;2023-06-10T07:03:41;6.25;;;3.40;;
22754;SDS011;11544;42.020;23.094;2023-06-10T07:06:08;4.90;;;3.30;;
22754;SDS011;11544;42.020;23.094;2023-06-10T07:08:35;5.03;;;3.92;;
22754;SDS011;11544;42.020;23.094;2023-06-10T07:11:02;3.83;;;3.50;;
22754;SDS011;11544;42.020;23.094;2023-06-10T07:13:30;4.40;;;3.05;;
22754;SDS011;11544;42.020;23.094;2023-06-10T07:15:57;6.00;;;3.80;;
22754;SDS011;11544;42.020;23.094;2023-06-10T07:18:26;4.28;;;2.80;;
22754;SDS011;11544;42.020;23.094;2023-06-10T07:20:56;6.22;;;3.13;;
22754;SDS011;11544;42.020;23.094;2023-06-10T07:23:23;5.00;;;3.20;;
22754;SDS011;11544;42.020;23.094;2023-06-10T07:25:50;4.13;;;2.92;;
22754;SDS011;11544;42.020;23.094;2023-06-10T07:31:29;4.18;;;3.72;;
22754;SDS011;11544;42.020;23.094;2023-06-10T07:33:56;5.82;;;3.63;;
22754;SDS011;11544;42.020;23.094;2023-06-10T07:36:23;7.15;;;3.65;;
22754;SDS011;11544;42.020;23.094;2023-06-10T07:38:54;6.50;;;3.72;;
22754;SDS011;11544;42.020;23.094;2023-06-10T07:41:22;5.72;;;3.63;;
22754;SDS011;11544;42.020;23.094;2023-06-10T07:43:52;3.75;;;3.35;;
22754;SDS011;11544;42.020;23.094;2023-06-10T07:46:21;4.93;;;3.65;;
22754;SDS011;11544;42.020;23.094;2023-06-10T07:48:49;5.10;;;3.55;;
22754;SDS011;11544;42.020;23.094;2023-06-10T07:51:16;6.03;;;3.88;;
22754;SDS011;11544;42.020;23.094;2023-06-10T07:53:43;4.28;;;3.58;;
22754;SDS011;11544;42.020;23.094;2023-06-10T07:56:10;6.18;;;3.83;;
22754;SDS011;11544;42.020;23.094;2023-06-10T07:58:37;6.15;;;4.00;;
22754;SDS011;11544;42.020;23.094;2023-06-10T08:01:04;10.23;;;3.65;;
22754;SDS011;11544;42.020;23.094;2023-06-10T08:03:31;5.65;;;3.78;;
22754;SDS011;11544;42.020;23.094;2023-06-10T08:05:58;4.20;;;3.67;;
22754;SDS011;11544;42.020;23.094;2023-06-10T08:08:25;7.45;;;3.53;;
22754;SDS011;11544;42.020;23.094;2023-06-10T08:10:52;6.88;;;3.67;;
22754;SDS011;11544;42.020;23.094;2023-06-10T08:13:19;6.00;;;4.05;;
22754;SDS011;11544;42.020;23.094;2023-06-10T08:15:47;6.30;;;4.20;;
22754;SDS011;11544;42.020;23.094;2023-06-10T08:18:17;4.30;;;3.78;;
22754;SDS011;11544;42.020;23.094;2023-06-10T08:20:43;6.38;;;3.83;;
22754;SDS011;11544;42.020;23.094;2023-06-10T08:23:11;6.75;;;3.60;;
22754;SDS011;11544;42.020;23.094;2023-06-10T08:25:56;5.47;;;4.07;;
22754;SDS011;11544;42.020;23.094;2023-06-10T08:28:24;4.03;;;3.45;;
22754;SDS011;11544;42.020;23.094;2023-06-10T08:30:51;5.90;;;3.58;;
22754;SDS011;11544;42.020;23.094;2023-06-10T08:33:19;7.57;;;3.28;;
22754;SDS011;11544;42.020;23.094;2023-06-10T08:35:46;6.07;;;3.50;;
22754;SDS011;11544;42.020;23.094;2023-06-10T08:38:13;4.20;;;3.60;;
22754;SDS011;11544;42.020;23.094;2023-06-10T08:40:39;5.50;;;3.90;;
22754;SDS011;11544;42.020;23.094;2023-06-10T08:43:07;6.75;;;3.58;;
22754;SDS011;11544;42.020;23.094;2023-06-10T08:45:37;4.32;;;3.83;;
22754;SDS011;11544;42.020;23.094;2023-06-10T08:48:04;5.68;;;3.65;;
22754;SDS011;11544;42.020;23.094;2023-06-10T08:50:35;4.75;;;3.55;;
22754;SDS011;11544;42.020;23.094;2023-06-10T08:53:04;4.97;;;3.17;;
22754;SDS011;11544;42.020;23.094;2023-06-10T08:55:35;5.45;;;3.47;;
22754;SDS011;11544;42.020;23.094;2023-06-10T08:58:04;4.65;;;3.03;;
22754;SDS011;11544;42.020;23.094;2023-06-10T09:00:31;6.53;;;3.40;;
22754;SDS011;11544;42.020;23.094;2023-06-10T09:02:59;5.00;;;3.42;;
22754;SDS011;11544;42.020;23.094;2023-06-10T09:05:32;3.80;;;2.78;;
22754;SDS011;11544;42.020;23.094;2023-06-10T09:08:00;5.13;;;3.03;;
22754;SDS011;11544;42.020;23.094;2023-06-10T09:10:27;3.78;;;3.00;;
22754;SDS011;11544;42.020;23.094;2023-06-10T09:12:54;5.70;;;3.28;;
22754;SDS011;11544;42.020;23.094;2023-06-10T09:15:22;7.47;;;3.20;;
22754;SDS011;11544;42.020;23.094;2023-06-10T09:17:49;4.30;;;3.20;;
22754;SDS011;11544;42.020;23.094;2023-06-10T09:20:17;5.30;;;3.42;;
22754;SDS011;11544;42.020;23.094;2023-06-10T09:22:45;4.38;;;2.85;;
22754;SDS011;11544;42.020;23.094;2023-06-10T09:25:12;4.32;;;3.45;;
22754;SDS011;11544;42.020;23.094;2023-06-10T09:27:49;4.30;;;3.35;;
22754;SDS011;11544;42.020;23.094;2023-06-10T09:30:23;4.47;;;3.25;;
22754;SDS011;11544;42.020;23.094;2023-06-10T09:32:55;5.80;;;3.58;;
22754;SDS011;11544;42.020;23.094;2023-06-10T09:35:27;5.78;;;3.50;;
22754;SDS011;11544;42.020;23.094;2023-06-10T09:37:56;6.75;;;3.70;;
22754;SDS011;11544;42.020;23.094;2023-06-10T09:40:24;5.35;;;3.97;;
22754;SDS011;11544;42.020;23.094;2023-06-10T09:42:53;4.55;;;3.53;;
22754;SDS011;11544;42.020;23.094;2023-06-10T09:45:21;5.65;;;3.70;;
22754;SDS011;11544;42.020;23.094;2023-06-10T09:47:52;4.95;;;3.20;;
22754;SDS011;11544;42.020;23.094;2023-06-10T09:50:20;6.78;;;3.13;;
22754;SDS011;11544;42.020;23.094;2023-06-10T09:52:47;7.18;;;3.83;;
22754;SDS011;11544;42.020;23.094;2023-06-10T09:55:14;3.88;;;2.97;;
22754;SDS011;11544;42.020;23.094;2023-06-10T09:57:42;4.55;;;3.13;;
22754;SDS011;11544;42.020;23.094;2023-06-10T10:00:11;3.45;;;2.88;;
22754;SDS011;11544;42.020;23.094;2023-06-10T10:05:17;3.90;;;3.20;;
22754;SDS011;11544;42.020;23.094;2023-06-10T10:07:46;3.20;;;2.90;;
22754;SDS011;11544;42.020;23.094;2023-06-10T10:10:15;3.17;;;2.83;;
22754;SDS011;11544;42.020;23.094;2023-06-10T10:12:43;4.07;;;3.40;;
22754;SDS011;11544;42.020;23.094;2023-06-10T10:15:13;4.03;;;3.08;;
22754;SDS011;11544;42.020;23.094;2023-06-10T10:17:44;3.72;;;3.22;;
22754;SDS011;11544;42.020;23.094;2023-06-10T10:20:20;5.57;;;3.15;;
22754;SDS011;11544;42.020;23.094;2023-06-10T10:22:51;3.50;;;2.95;;
22754;SDS011;11544;42.020;23.094;2023-06-10T10:25:27;5.28;;;3.30;;
22754;SDS011;11544;42.020;23.094;2023-06-10T10:28:06;4.50;;;2.80;;
22754;SDS011;11544;42.020;23.094;2023-06-10T10:30:56;2.70;;;2.42;;
22754;SDS011;11544;42.020;23.094;2023-06-10T10:36:18;2.95;;;2.30;;
22754;SDS011;11544;42.020;23.094;2023-06-10T10:38:46;7.30;;;2.67;;
22754;SDS011;11544;42.020;23.094;2023-06-10T10:41:18;3.55;;;2.67;;
22754;SDS011;11544;42.020;23.094;2023-06-10T10:43:47;3.10;;;2.75;;
22754;SDS011;11544;42.020;23.094;2023-06-10T10:46:16;4.38;;;2.97;;
22754;SDS011;11544;42.020;23.094;2023-06-10T10:48:44;2.97;;;2.35;;
22754;SDS011;11544;42.020;23.094;2023-06-10T10:51:11;3.83;;;2.80;;
22754;SDS011;11544;42.020;23.094;2023-06-10T10:53:39;3.88;;;2.40;;
22754;SDS011;11544;42.020;23.094;2023-06-10T10:56:07;3.55;;;2.83;;
22754;SDS011;11544;42.020;23.094;2023-06-10T10:58:40;5.60;;;2.75;;
22754;SDS011;11544;42.020;23.094;2023-06-10T11:01:10;3.83;;;2.70;;
22754;SDS011;11544;42.020;23.094;2023-06-10T11:03:43;2.75;;;2.30;;
22754;SDS011;11544;42.020;23.094;2023-06-10T11:06:19;3.20;;;2.70;;
22754;SDS011;11544;42.020;23.094;2023-06-10T11:08:48;3.00;;;2.70;;
22754;SDS011;11544;42.020;23.094;2023-06-10T11:11:25;3.00;;;2.60;;
22754;SDS011;11544;42.020;23.094;2023-06-10T11:14:04;3.05;;;2.75;;
22754;SDS011;11544;42.020;23.094;2023-06-10T11:16:58;4.45;;;2.60;;
22754;SDS011;11544;42.020;23.094;2023-06-10T11:19:32;3.88;;;2.45;;
22754;SDS011;11544;42.020;23.094;2023-06-10T11:22:04;5.72;;;2.78;;
22754;SDS011;11544;42.020;23.094;2023-06-10T11:24:36;3.38;;;2.70;;
22754;SDS011;11544;42.020;23.094;2023-06-10T11:27:17;5.15;;;2.85;;
22754;SDS011;11544;42.020;23.094;2023-06-10T11:29:57;5.03;;;2.50;;
22754;SDS011;11544;42.020;23.094;2023-06-10T11:32:33;3.20;;;2.90;;
22754;SDS011;11544;42.020;23.094;2023-06-10T11:35:20;3.05;;;2.38;;
22754;SDS011;11544;42.020;23.094;2023-06-10T11:37:50;3.22;;;2.63;;
22754;SDS011;11544;42.020;23.094;2023-06-10T11:40:20;3.47;;;2.30;;
22754;SDS011;11544;42.020;23.094;2023-06-10T11:42:48;8.02;;;3.33;;
22754;SDS011;11544;42.020;23.094;2023-06-10T11:45:15;4.40;;;2.80;;
22754;SDS011;11544;42.020;23.094;2023-06-10T11:48:00;4.85;;;3.03;;
22754;SDS011;11544;42.020;23.094;2023-06-10T11:50:31;4.45;;;3.03;;
22754;SDS011;11544;42.020;23.094;2023-06-10T11:52:59;5.97;;;2.88;;
22754;SDS011;11544;42.020;23.094;2023-06-10T11:55:45;3.08;;;2.75;;
22754;SDS011;11544;42.020;23.094;2023-06-10T11:58:13;4.07;;;3.05;;
22754;SDS011;11544;42.020;23.094;2023-06-10T12:00:58;6.15;;;3.22;;
22754;SDS011;11544;42.020;23.094;2023-06-10T12:03:35;4.28;;;2.72;;
22754;SDS011;11544;42.020;23.094;2023-06-10T12:06:05;3.25;;;2.95;;
22754;SDS011;11544;42.020;23.094;2023-06-10T12:08:41;5.70;;;3.15;;
22754;SDS011;11544;42.020;23.094;2023-06-10T12:11:09;4.80;;;3.00;;
22754;SDS011;11544;42.020;23.094;2023-06-10T12:13:38;5.22;;;3.03;;
22754;SDS011;11544;42.020;23.094;2023-06-10T12:16:16;3.45;;;3.15;;
22754;SDS011;11544;42.020;23.094;2023-06-10T12:18:43;2.85;;;2.47;;
22754;SDS011;11544;42.020;23.094;2023-06-10T12:21:20;3.92;;;2.67;;
22754;SDS011;11544;42.020;23.094;2023-06-10T12:26:37;5.05;;;3.42;;
22754;SDS011;11544;42.020;23.094;2023-06-10T12:32:00;4.15;;;3.00;;
22754;SDS011;11544;42.020;23.094;2023-06-10T12:34:30;5.78;;;3.38;;
22754;SDS011;11544;42.020;23.094;2023-06-10T12:37:10;5.05;;;3.55;;
22754;SDS011;11544;42.020;23.094;2023-06-10T12:39:41;3.55;;;3.25;;
22754;SDS011;11544;42.020;23.094;2023-06-10T12:42:09;4.00;;;3.17;;
22754;SDS011;11544;42.020;23.094;2023-06-10T12:44:39;4.53;;;3.10;;
22754;SDS011;11544;42.020;23.094;2023-06-10T12:47:08;3.78;;;3.22;;
22754;SDS011;11544;42.020;23.094;2023-06-10T12:49:36;4.47;;;3.30;;
22754;SDS011;11544;42.020;23.094;2023-06-10T12:52:03;3.75;;;3.45;;
22754;SDS011;11544;42.020;23.094;2023-06-10T12:54:31;5.07;;;3.58;;
22754;SDS011;11544;42.020;23.094;2023-06-10T12:56:58;3.70;;;3.40;;
22754;SDS011;11544;42.020;23.094;2023-06-10T12:59:25;5.88;;;3.17;;
22754;SDS011;11544;42.020;23.094;2023-06-10T13:01:53;3.85;;;3.00;;
22754;SDS011;11544;42.020;23.094;2023-06-10T13:04:21;3.38;;;3.08;;
22754;SDS011;11544;42.020;23.094;2023-06-10T13:06:49;4.18;;;3.70;;
22754;SDS011;11544;42.020;23.094;2023-06-10T13:09:16;5.18;;;3.45;;
22754;SDS011;11544;42.020;23.094;2023-06-10T13:11:43;4.15;;;3.75;;
22754;SDS011;11544;42.020;23.094;2023-06-10T13:14:10;4.72;;;3.75;;
22754;SDS011;11544;42.020;23.094;2023-06-10T13:16:37;4.25;;;3.85;;
22754;SDS011;11544;42.020;23.094;2023-06-10T13:19:05;4.38;;;3.90;;
22754;SDS011;11544;42.020;23.094;2023-06-10T13:21:32;4.00;;;3.60;;
22754;SDS011;11544;42.020;23.094;2023-06-10T13:24:00;4.13;;;3.63;;
22754;SDS011;11544;42.020;23.094;2023-06-10T13:26:27;4.78;;;4.20;;
22754;SDS011;11544;42.020;23.094;2023-06-10T13:28:54;4.78;;;4.05;;
22754;SDS011;11544;42.020;23.094;2023-06-10T13:31:21;4.22;;;3.80;;
22754;SDS011;11544;42.020;23.094;2023-06-10T13:33:48;3.65;;;3.35;;
22754;SDS011;11544;42.020;23.094;2023-06-10T13:36:15;4.38;;;3.97;;
22754;SDS011;11544;42.020;23.094;2023-06-10T13:38:42;5.65;;;3.97;;
22754;SDS011;11544;42.020;23.094;2023-06-10T13:41:09;4.30;;;3.90;;
22754;SDS011;11544;42.020;23.094;2023-06-10T13:43:36;6.03;;;4.10;;
22754;SDS011;11544;42.020;23.094;2023-06-10T13:46:03;4.55;;;4.13;;
22754;SDS011;11544;42.020;23.094;2023-06-10T13:48:30;4.80;;;4.13;;
22754;SDS011;11544;42.020;23.094;2023-06-10T13:50:57;4.72;;;4.20;;
22754;SDS011;11544;42.020;23.094;2023-06-10T13:53:24;6.47;;;4.60;;
22754;SDS011;11544;42.020;23.094;2023-06-10T13:55:51;4.63;;;3.85;;
22754;SDS011;11544;42.020;23.094;2023-06-10T13:58:18;5.00;;;3.92;;
22754;SDS011;11544;42.020;23.094;2023-06-10T14:00:44;5.68;;;4.38;;
22754;SDS011;11544;42.020;23.094;2023-06-10T14:03:12;4.88;;;4.35;;
22754;SDS011;11544;42.020;23.094;2023-06-10T14:05:39;5.22;;;3.88;;
22754;SDS011;11544;42.020;23.094;2023-06-10T14:08:05;6.45;;;4.57;;
22754;SDS011;11544;42.020;23.094;2023-06-10T14:10:32;9.20;;;4.93;;
22754;SDS011;11544;42.020;23.094;2023-06-10T14:13:09;5.22;;;4.10;;
22754;SDS011;11544;42.020;23.094;2023-06-10T14:15:40;3.78;;;3.38;;
22754;SDS011;11544;42.020;23.094;2023-06-10T14:18:16;10.27;;;8.02;;
22754;SDS011;11544;42.020;23.094;2023-06-10T14:20:43;6.65;;;6.00;;
22754;SDS011;11544;42.020;23.094;2023-06-10T14:23:10;5.05;;;4.20;;
22754;SDS011;11544;42.020;23.094;2023-06-10T14:25:37;4.18;;;3.78;;
22754;SDS011;11544;42.020;23.094;2023-06-10T14:28:04;3.25;;;2.95;;
22754;SDS011;11544;42.020;23.094;2023-06-10T14:30:31;2.97;;;2.67;;
22754;SDS011;11544;42.020;23.094;2023-06-10T14:33:07;4.57;;;3.10;;
22754;SDS011;11544;42.020;23.094;2023-06-10T14:35:44;5.32;;;3.58;;
22754;SDS011;11544;42.020;23.094;2023-06-10T14:38:11;4.47;;;3.22;;
22754;SDS011;11544;42.020;23.094;2023-06-10T14:40:38;3.58;;;3.28;;
22754;SDS011;11544;42.020;23.094;2023-06-10T14:43:05;4.03;;;2.80;;
22754;SDS011;11544;42.020;23.094;2023-06-10T14:45:36;4.68;;;3.72;;
22754;SDS011;11544;42.020;23.094;2023-06-10T14:48:05;4.63;;;3.10;;
22754;SDS011;11544;42.020;23.094;2023-06-10T14:50:39;3.55;;;2.70;;
22754;SDS011;11544;42.020;23.094;2023-06-10T14:53:12;2.95;;;2.25;;
22754;SDS011;11544;42.020;23.094;2023-06-10T14:55:47;4.07;;;3.13;;
22754;SDS011;11544;42.020;23.094;2023-06-10T14:58:14;3.53;;;2.92;;
22754;SDS011;11544;42.020;23.094;2023-06-10T15:00:46;5.50;;;3.05;;